sensor_id;sensor_type;location;lat;lon;timestamp;temperature;humidity
44190;DHT22;29856;52.144;5.430;2023-11-21T00:01:12;9.60;99.90
44190;DHT22;29856;52.144;5.430;2023-11-21T00:03:38;9.40;99.90
44190;DHT22;29856;52.144;5.430;2023-11-21T00:06:04;9.30;99.90
44190;DHT22;29856;52.144;5.430;2023-11-21T00:08:29;9.20;99.90
44190;DHT22;29856;52.144;5.430;2023-11-21T00:10:54;9.30;99.90
44190;DHT22;29856;52.144;5.430;2023-11-21T00:13:20;9.50;99.90
44190;DHT22;29856;52.144;5.430;2023-11-21T00:15:45;9.40;99.90
44190;DHT22;29856;52.144;5.430;2023-11-21T00:18:11;9.50;99.90
44190;DHT22;29856;52.144;5.430;2023-11-21T00:20:36;9.50;99.90
44190;DHT22;29856;52.144;5.430;2023-11-21T00:23:02;9.50;99.90
44190;DHT22;29856;52.144;5.430;2023-11-21T00:25:27;9.60;99.90
44190;DHT22;29856;52.144;5.430;2023-11-21T00:27:53;9.70;99.90
44190;DHT22;29856;52.144;5.430;2023-11-21T00:30:18;9.70;99.90
44190;DHT22;29856;52.144;5.430;2023-11-21T00:32:44;9.80;99.90
44190;DHT22;29856;52.144;5.430;2023-11-21T00:35:09;9.80;99.90
44190;DHT22;29856;52.144;5.430;2023-11-21T00:37:35;9.90;99.90
44190;DHT22;29856;52.144;5.430;2023-11-21T00:40:01;9.80;99.90
44190;DHT22;29856;52.144;5.430;2023-11-21T00:42:26;9.90;99.90
44190;DHT22;29856;52.144;5.430;2023-11-21T00:44:52;9.90;99.90
44190;DHT22;29856;52.144;5.430;2023-11-21T00:47:17;9.90;99.90
44190;DHT22;29856;52.144;5.430;2023-11-21T00:49:42;9.80;99.90
44190;DHT22;29856;52.144;5.430;2023-11-21T00:52:08;9.60;99.90
44190;DHT22;29856;52.144;5.430;2023-11-21T00:54:33;9.50;99.90
44190;DHT22;29856;52.144;5.430;2023-11-21T00:56:59;9.60;99.90
44190;DHT22;29856;52.144;5.430;2023-11-21T00:59:24;9.80;99.90
44190;DHT22;29856;52.144;5.430;2023-11-21T01:01:50;9.90;99.90
44190;DHT22;29856;52.144;5.430;2023-11-21T01:04:15;9.80;99.90
44190;DHT22;29856;52.144;5.430;2023-11-21T01:06:41;9.90;99.90
44190;DHT22;29856;52.144;5.430;2023-11-21T01:09:06;9.80;99.90
44190;DHT22;29856;52.144;5.430;2023-11-21T01:11:32;9.90;99.90
44190;DHT22;29856;52.144;5.430;2023-11-21T01:13:57;9.90;99.90
44190;DHT22;29856;52.144;5.430;2023-11-21T01:16:23;9.80;99.90
44190;DHT22;29856;52.144;5.430;2023-11-21T01:18:48;9.90;99.90
44190;DHT22;29856;52.144;5.430;2023-11-21T01:21:13;9.80;99.90
44190;DHT22;29856;52.144;5.430;2023-11-21T01:23:39;9.90;99.90
44190;DHT22;29856;52.144;5.430;2023-11-21T01:26:05;10.00;99.90
44190;DHT22;29856;52.144;5.430;2023-11-21T01:28:30;10.00;99.90
44190;DHT22;29856;52.144;5.430;2023-11-21T01:30:56;10.10;99.90
44190;DHT22;29856;52.144;5.430;2023-11-21T01:33:21;9.90;99.90
44190;DHT22;29856;52.144;5.430;2023-11-21T01:35:47;10.00;99.90
44190;DHT22;29856;52.144;5.430;2023-11-21T01:38:12;10.10;99.90
44190;DHT22;29856;52.144;5.430;2023-11-21T01:40:38;10.10;99.90
44190;DHT22;29856;52.144;5.430;2023-11-21T01:43:03;10.10;99.90
44190;DHT22;29856;52.144;5.430;2023-11-21T01:45:29;10.10;99.90
44190;DHT22;29856;52.144;5.430;2023-11-21T01:47:55;10.00;99.90
44190;DHT22;29856;52.144;5.430;2023-11-21T01:50:20;10.00;99.90
44190;DHT22;29856;52.144;5.430;2023-11-21T01:52:46;10.00;99.90
44190;DHT22;29856;52.144;5.430;2023-11-21T01:55:15;9.90;99.90
44190;DHT22;29856;52.144;5.430;2023-11-21T01:57:41;9.80;99.90
44190;DHT22;29856;52.144;5.430;2023-11-21T02:00:07;9.80;99.90
44190;DHT22;29856;52.144;5.430;2023-11-21T02:02:32;9.80;99.90
44190;DHT22;29856;52.144;5.430;2023-11-21T02:04:58;9.90;99.90
44190;DHT22;29856;52.144;5.430;2023-11-21T02:07:23;10.00;99.90
44190;DHT22;29856;52.144;5.430;2023-11-21T02:09:49;10.00;99.90
44190;DHT22;29856;52.144;5.430;2023-11-21T02:12:14;10.00;99.90
44190;DHT22;29856;52.144;5.430;2023-11-21T02:14:39;10.00;99.90
44190;DHT22;29856;52.144;5.430;2023-11-21T02:17:06;10.00;99.90
44190;DHT22;29856;52.144;5.430;2023-11-21T02:19:31;10.00;99.90
44190;DHT22;29856;52.144;5.430;2023-11-21T02:21:57;10.00;99.90
44190;DHT22;29856;52.144;5.430;2023-11-21T02:24:24;10.00;99.90
44190;DHT22;29856;52.144;5.430;2023-11-21T02:26:50;10.10;99.90
44190;DHT22;29856;52.144;5.430;2023-11-21T02:29:16;10.10;99.90
44190;DHT22;29856;52.144;5.430;2023-11-21T02:31:41;10.00;99.90
44190;DHT22;29856;52.144;5.430;2023-11-21T02:34:07;10.10;99.90
44190;DHT22;29856;52.144;5.430;2023-11-21T02:36:32;10.00;99.90
44190;DHT22;29856;52.144;5.430;2023-11-21T02:38:58;9.90;99.90
44190;DHT22;29856;52.144;5.430;2023-11-21T02:41:23;10.10;99.90
44190;DHT22;29856;52.144;5.430;2023-11-21T02:43:48;10.20;99.90
44190;DHT22;29856;52.144;5.430;2023-11-21T02:46:14;10.20;99.90
44190;DHT22;29856;52.144;5.430;2023-11-21T02:48:39;10.20;99.90
44190;DHT22;29856;52.144;5.430;2023-11-21T02:51:05;10.20;99.90
44190;DHT22;29856;52.144;5.430;2023-11-21T02:53:30;10.30;99.90
44190;DHT22;29856;52.144;5.430;2023-11-21T02:55:56;10.30;99.90
44190;DHT22;29856;52.144;5.430;2023-11-21T02:58:21;10.40;99.90
44190;DHT22;29856;52.144;5.430;2023-11-21T03:00:47;10.40;99.90
44190;DHT22;29856;52.144;5.430;2023-11-21T03:03:12;10.40;99.90
44190;DHT22;29856;52.144;5.430;2023-11-21T03:05:37;10.40;99.90
44190;DHT22;29856;52.144;5.430;2023-11-21T03:08:03;10.30;99.90
44190;DHT22;29856;52.144;5.430;2023-11-21T03:10:28;10.30;99.90
44190;DHT22;29856;52.144;5.430;2023-11-21T03:12:54;10.40;99.90
44190;DHT22;29856;52.144;5.430;2023-11-21T03:15:19;10.20;99.90
44190;DHT22;29856;52.144;5.430;2023-11-21T03:17:45;10.30;99.90
44190;DHT22;29856;52.144;5.430;2023-11-21T03:20:11;10.20;99.90
44190;DHT22;29856;52.144;5.430;2023-11-21T03:22:37;10.10;99.90
44190;DHT22;29856;52.144;5.430;2023-11-21T03:25:02;10.20;99.90
44190;DHT22;29856;52.144;5.430;2023-11-21T03:27:28;10.30;99.90
44190;DHT22;29856;52.144;5.430;2023-11-21T03:29:53;10.30;99.90
44190;DHT22;29856;52.144;5.430;2023-11-21T03:32:19;10.30;99.90
44190;DHT22;29856;52.144;5.430;2023-11-21T03:34:57;10.40;99.90
44190;DHT22;29856;52.144;5.430;2023-11-21T03:37:23;10.40;99.90
44190;DHT22;29856;52.144;5.430;2023-11-21T03:39:48;10.50;99.90
44190;DHT22;29856;52.144;5.430;2023-11-21T03:42:14;10.40;99.90
44190;DHT22;29856;52.144;5.430;2023-11-21T03:44:39;10.40;99.90
44190;DHT22;29856;52.144;5.430;2023-11-21T03:47:05;10.30;99.90
44190;DHT22;29856;52.144;5.430;2023-11-21T03:49:30;10.20;99.90
44190;DHT22;29856;52.144;5.430;2023-11-21T03:51:56;10.20;99.90
44190;DHT22;29856;52.144;5.430;2023-11-21T03:54:21;10.30;99.90
44190;DHT22;29856;52.144;5.430;2023-11-21T03:56:47;10.30;99.90
44190;DHT22;29856;52.144;5.430;2023-11-21T03:59:12;10.30;99.90
44190;DHT22;29856;52.144;5.430;2023-11-21T04:01:38;10.40;99.90
44190;DHT22;29856;52.144;5.430;2023-11-21T04:04:03;10.60;99.90
44190;DHT22;29856;52.144;5.430;2023-11-21T04:06:29;10.60;99.90
44190;DHT22;29856;52.144;5.430;2023-11-21T04:08:54;10.60;99.90
44190;DHT22;29856;52.144;5.430;2023-11-21T04:11:20;10.70;99.90
44190;DHT22;29856;52.144;5.430;2023-11-21T04:13:45;10.60;99.90
44190;DHT22;29856;52.144;5.430;2023-11-21T04:16:11;10.60;99.90
44190;DHT22;29856;52.144;5.430;2023-11-21T04:18:36;10.60;99.90
44190;DHT22;29856;52.144;5.430;2023-11-21T04:21:02;10.60;99.90
44190;DHT22;29856;52.144;5.430;2023-11-21T04:23:28;10.60;99.90
44190;DHT22;29856;52.144;5.430;2023-11-21T04:25:54;10.60;99.90
44190;DHT22;29856;52.144;5.430;2023-11-21T04:28:20;10.70;99.90
44190;DHT22;29856;52.144;5.430;2023-11-21T04:30:45;10.60;99.90
44190;DHT22;29856;52.144;5.430;2023-11-21T04:33:10;10.60;99.90
44190;DHT22;29856;52.144;5.430;2023-11-21T04:35:36;10.70;99.90
44190;DHT22;29856;52.144;5.430;2023-11-21T04:38:01;10.70;99.90
44190;DHT22;29856;52.144;5.430;2023-11-21T04:40:27;10.70;99.90
44190;DHT22;29856;52.144;5.430;2023-11-21T04:42:52;10.70;99.90
44190;DHT22;29856;52.144;5.430;2023-11-21T04:45:18;10.70;99.90
44190;DHT22;29856;52.144;5.430;2023-11-21T04:47:43;10.60;99.90
44190;DHT22;29856;52.144;5.430;2023-11-21T04:50:09;10.50;99.90
44190;DHT22;29856;52.144;5.430;2023-11-21T04:52:35;10.60;99.90
44190;DHT22;29856;52.144;5.430;2023-11-21T04:55:00;10.70;99.90
44190;DHT22;29856;52.144;5.430;2023-11-21T04:57:26;10.80;99.90
44190;DHT22;29856;52.144;5.430;2023-11-21T04:59:51;10.80;99.90
44190;DHT22;29856;52.144;5.430;2023-11-21T05:02:17;10.70;99.90
44190;DHT22;29856;52.144;5.430;2023-11-21T05:04:42;10.80;99.90
44190;DHT22;29856;52.144;5.430;2023-11-21T05:07:08;10.80;99.90
44190;DHT22;29856;52.144;5.430;2023-11-21T05:09:33;10.70;99.90
44190;DHT22;29856;52.144;5.430;2023-11-21T05:11:59;10.80;99.90
44190;DHT22;29856;52.144;5.430;2023-11-21T05:14:24;10.90;99.90
44190;DHT22;29856;52.144;5.430;2023-11-21T05:16:49;11.00;99.90
44190;DHT22;29856;52.144;5.430;2023-11-21T05:19:15;10.90;99.90
44190;DHT22;29856;52.144;5.430;2023-11-21T05:21:40;10.90;99.90
44190;DHT22;29856;52.144;5.430;2023-11-21T05:24:06;10.80;99.90
44190;DHT22;29856;52.144;5.430;2023-11-21T05:26:32;10.80;99.90
44190;DHT22;29856;52.144;5.430;2023-11-21T05:28:57;11.00;99.90
44190;DHT22;29856;52.144;5.430;2023-11-21T05:31:23;11.00;99.90
44190;DHT22;29856;52.144;5.430;2023-11-21T05:33:48;11.00;99.90
44190;DHT22;29856;52.144;5.430;2023-11-21T05:36:14;11.10;99.90
44190;DHT22;29856;52.144;5.430;2023-11-21T05:38:39;11.00;99.90
44190;DHT22;29856;52.144;5.430;2023-11-21T05:41:05;11.00;99.90
44190;DHT22;29856;52.144;5.430;2023-11-21T05:43:30;10.90;99.90
44190;DHT22;29856;52.144;5.430;2023-11-21T05:45:56;10.90;99.90
44190;DHT22;29856;52.144;5.430;2023-11-21T05:48:22;10.90;99.90
44190;DHT22;29856;52.144;5.430;2023-11-21T05:50:47;10.90;99.90
44190;DHT22;29856;52.144;5.430;2023-11-21T05:53:12;10.80;99.90
44190;DHT22;29856;52.144;5.430;2023-11-21T05:55:38;10.90;99.90
44190;DHT22;29856;52.144;5.430;2023-11-21T05:58:03;10.90;99.90
44190;DHT22;29856;52.144;5.430;2023-11-21T06:00:29;10.90;99.90
44190;DHT22;29856;52.144;5.430;2023-11-21T06:02:54;10.90;99.90
44190;DHT22;29856;52.144;5.430;2023-11-21T06:05:22;10.90;99.90
44190;DHT22;29856;52.144;5.430;2023-11-21T06:07:49;10.90;99.90
44190;DHT22;29856;52.144;5.430;2023-11-21T06:10:15;10.80;99.90
44190;DHT22;29856;52.144;5.430;2023-11-21T06:12:40;10.80;99.90
44190;DHT22;29856;52.144;5.430;2023-11-21T06:15:06;10.70;99.90
44190;DHT22;29856;52.144;5.430;2023-11-21T06:17:32;10.70;99.90
44190;DHT22;29856;52.144;5.430;2023-11-21T06:19:57;10.70;99.90
44190;DHT22;29856;52.144;5.430;2023-11-21T06:22:23;10.70;99.90
44190;DHT22;29856;52.144;5.430;2023-11-21T06:24:48;10.60;99.90
44190;DHT22;29856;52.144;5.430;2023-11-21T06:27:14;10.60;99.90
44190;DHT22;29856;52.144;5.430;2023-11-21T06:29:39;10.60;99.90
44190;DHT22;29856;52.144;5.430;2023-11-21T06:32:05;10.60;99.90
44190;DHT22;29856;52.144;5.430;2023-11-21T06:34:31;10.60;99.90
44190;DHT22;29856;52.144;5.430;2023-11-21T06:36:56;10.60;99.90
44190;DHT22;29856;52.144;5.430;2023-11-21T06:39:22;10.70;99.90
44190;DHT22;29856;52.144;5.430;2023-11-21T06:41:47;10.80;99.90
44190;DHT22;29856;52.144;5.430;2023-11-21T06:44:13;10.80;99.90
44190;DHT22;29856;52.144;5.430;2023-11-21T06:46:38;10.90;99.90
44190;DHT22;29856;52.144;5.430;2023-11-21T06:49:03;10.80;99.90
44190;DHT22;29856;52.144;5.430;2023-11-21T06:51:29;10.90;99.90
44190;DHT22;29856;52.144;5.430;2023-11-21T06:53:54;10.90;99.90
44190;DHT22;29856;52.144;5.430;2023-11-21T06:56:20;10.80;99.90
44190;DHT22;29856;52.144;5.430;2023-11-21T06:58:46;10.90;99.90
44190;DHT22;29856;52.144;5.430;2023-11-21T07:01:12;10.90;99.90
44190;DHT22;29856;52.144;5.430;2023-11-21T07:03:37;10.90;99.90
44190;DHT22;29856;52.144;5.430;2023-11-21T07:06:04;10.90;99.90
44190;DHT22;29856;52.144;5.430;2023-11-21T07:08:29;10.90;99.90
44190;DHT22;29856;52.144;5.430;2023-11-21T07:10:55;10.90;99.90
44190;DHT22;29856;52.144;5.430;2023-11-21T07:13:20;10.90;99.90
44190;DHT22;29856;52.144;5.430;2023-11-21T07:15:46;10.90;99.90
44190;DHT22;29856;52.144;5.430;2023-11-21T07:18:11;10.80;99.90
44190;DHT22;29856;52.144;5.430;2023-11-21T07:20:36;10.80;99.90
44190;DHT22;29856;52.144;5.430;2023-11-21T07:23:02;10.90;99.90
44190;DHT22;29856;52.144;5.430;2023-11-21T07:25:27;10.90;99.90
44190;DHT22;29856;52.144;5.430;2023-11-21T07:27:53;10.90;99.90
44190;DHT22;29856;52.144;5.430;2023-11-21T07:30:18;10.90;99.90
44190;DHT22;29856;52.144;5.430;2023-11-21T07:32:44;10.90;99.90
44190;DHT22;29856;52.144;5.430;2023-11-21T07:35:09;10.90;99.90
44190;DHT22;29856;52.144;5.430;2023-11-21T07:37:35;11.00;99.90
44190;DHT22;29856;52.144;5.430;2023-11-21T07:40:00;11.00;99.90
44190;DHT22;29856;52.144;5.430;2023-11-21T07:42:25;11.10;99.90
44190;DHT22;29856;52.144;5.430;2023-11-21T07:44:51;11.10;99.90
44190;DHT22;29856;52.144;5.430;2023-11-21T07:47:17;11.10;99.90
44190;DHT22;29856;52.144;5.430;2023-11-21T07:49:42;11.10;99.90
44190;DHT22;29856;52.144;5.430;2023-11-21T07:52:07;11.00;99.90
44190;DHT22;29856;52.144;5.430;2023-11-21T07:54:33;11.00;99.90
44190;DHT22;29856;52.144;5.430;2023-11-21T07:56:58;11.00;99.90
44190;DHT22;29856;52.144;5.430;2023-11-21T07:59:24;11.00;99.90
44190;DHT22;29856;52.144;5.430;2023-11-21T08:01:49;11.10;99.90
44190;DHT22;29856;52.144;5.430;2023-11-21T08:04:15;11.10;99.90
44190;DHT22;29856;52.144;5.430;2023-11-21T08:06:40;11.20;99.90
44190;DHT22;29856;52.144;5.430;2023-11-21T08:09:06;11.30;99.90
44190;DHT22;29856;52.144;5.430;2023-11-21T08:11:31;11.30;99.90
44190;DHT22;29856;52.144;5.430;2023-11-21T08:13:56;11.30;99.90
44190;DHT22;29856;52.144;5.430;2023-11-21T08:16:22;11.30;99.90
44190;DHT22;29856;52.144;5.430;2023-11-21T08:18:47;11.40;99.90
44190;DHT22;29856;52.144;5.430;2023-11-21T08:21:13;11.40;99.90
44190;DHT22;29856;52.144;5.430;2023-11-21T08:23:38;11.40;99.90
44190;DHT22;29856;52.144;5.430;2023-11-21T08:26:05;11.50;99.90
44190;DHT22;29856;52.144;5.430;2023-11-21T08:28:30;11.40;99.90
44190;DHT22;29856;52.144;5.430;2023-11-21T08:30:56;11.30;99.90
44190;DHT22;29856;52.144;5.430;2023-11-21T08:33:21;11.30;99.90
44190;DHT22;29856;52.144;5.430;2023-11-21T08:35:47;11.40;99.90
44190;DHT22;29856;52.144;5.430;2023-11-21T08:38:12;11.40;99.90
44190;DHT22;29856;52.144;5.430;2023-11-21T08:40:38;11.40;99.90
44190;DHT22;29856;52.144;5.430;2023-11-21T08:43:04;11.30;99.90
44190;DHT22;29856;52.144;5.430;2023-11-21T08:45:29;11.30;99.90
44190;DHT22;29856;52.144;5.430;2023-11-21T08:47:55;11.20;99.90
44190;DHT22;29856;52.144;5.430;2023-11-21T08:50:20;11.20;99.90
44190;DHT22;29856;52.144;5.430;2023-11-21T08:52:46;11.20;99.90
44190;DHT22;29856;52.144;5.430;2023-11-21T08:55:12;11.20;99.90
44190;DHT22;29856;52.144;5.430;2023-11-21T08:57:38;11.20;99.90
44190;DHT22;29856;52.144;5.430;2023-11-21T09:00:04;11.20;99.90
44190;DHT22;29856;52.144;5.430;2023-11-21T09:02:30;11.20;99.90
44190;DHT22;29856;52.144;5.430;2023-11-21T09:04:55;11.20;99.90
44190;DHT22;29856;52.144;5.430;2023-11-21T09:07:21;11.30;99.90
44190;DHT22;29856;52.144;5.430;2023-11-21T09:09:47;11.30;99.90
44190;DHT22;29856;52.144;5.430;2023-11-21T09:12:12;11.50;99.90
44190;DHT22;29856;52.144;5.430;2023-11-21T09:14:38;11.50;99.90
44190;DHT22;29856;52.144;5.430;2023-11-21T09:17:03;11.40;99.90
44190;DHT22;29856;52.144;5.430;2023-11-21T09:19:29;11.50;99.90
44190;DHT22;29856;52.144;5.430;2023-11-21T09:21:55;11.40;99.90
44190;DHT22;29856;52.144;5.430;2023-11-21T09:24:20;11.50;99.90
44190;DHT22;29856;52.144;5.430;2023-11-21T09:26:46;11.50;99.90
44190;DHT22;29856;52.144;5.430;2023-11-21T09:29:11;11.50;99.90
44190;DHT22;29856;52.144;5.430;2023-11-21T09:31:36;11.50;99.90
44190;DHT22;29856;52.144;5.430;2023-11-21T09:34:02;11.50;99.90
44190;DHT22;29856;52.144;5.430;2023-11-21T09:36:28;11.40;99.90
44190;DHT22;29856;52.144;5.430;2023-11-21T09:38:53;11.40;99.90
44190;DHT22;29856;52.144;5.430;2023-11-21T09:41:26;11.30;99.90
44190;DHT22;29856;52.144;5.430;2023-11-21T09:43:56;11.20;99.90
44190;DHT22;29856;52.144;5.430;2023-11-21T09:46:23;11.20;99.90
44190;DHT22;29856;52.144;5.430;2023-11-21T09:48:51;11.20;99.90
44190;DHT22;29856;52.144;5.430;2023-11-21T09:51:21;11.10;99.90
44190;DHT22;29856;52.144;5.430;2023-11-21T09:53:50;11.10;99.90
44190;DHT22;29856;52.144;5.430;2023-11-21T09:56:16;11.00;99.90
44190;DHT22;29856;52.144;5.430;2023-11-21T09:58:41;11.00;99.90
44190;DHT22;29856;52.144;5.430;2023-11-21T10:01:07;11.00;99.90
44190;DHT22;29856;52.144;5.430;2023-11-21T10:03:35;11.00;99.90
44190;DHT22;29856;52.144;5.430;2023-11-21T10:06:01;11.00;99.90
44190;DHT22;29856;52.144;5.430;2023-11-21T10:08:28;11.00;99.90
44190;DHT22;29856;52.144;5.430;2023-11-21T10:10:55;11.00;99.90
44190;DHT22;29856;52.144;5.430;2023-11-21T10:13:21;11.00;99.90
44190;DHT22;29856;52.144;5.430;2023-11-21T10:15:51;11.00;99.90
44190;DHT22;29856;52.144;5.430;2023-11-21T10:18:17;11.00;99.90
44190;DHT22;29856;52.144;5.430;2023-11-21T10:20:43;11.00;99.90
44190;DHT22;29856;52.144;5.430;2023-11-21T10:23:08;11.10;99.90
44190;DHT22;29856;52.144;5.430;2023-11-21T10:25:34;11.10;99.90
44190;DHT22;29856;52.144;5.430;2023-11-21T10:28:02;11.10;99.90
44190;DHT22;29856;52.144;5.430;2023-11-21T10:30:35;11.20;99.90
44190;DHT22;29856;52.144;5.430;2023-11-21T10:33:00;11.20;99.90
44190;DHT22;29856;52.144;5.430;2023-11-21T10:38:06;11.10;99.90
44190;DHT22;29856;52.144;5.430;2023-11-21T10:40:32;11.00;99.90
44190;DHT22;29856;52.144;5.430;2023-11-21T10:43:06;11.00;99.90
44190;DHT22;29856;52.144;5.430;2023-11-21T10:45:32;10.90;99.90
44190;DHT22;29856;52.144;5.430;2023-11-21T10:47:57;10.90;99.90
44190;DHT22;29856;52.144;5.430;2023-11-21T10:50:23;11.00;99.90
44190;DHT22;29856;52.144;5.430;2023-11-21T10:52:49;11.00;99.90
44190;DHT22;29856;52.144;5.430;2023-11-21T10:55:18;10.90;99.90
44190;DHT22;29856;52.144;5.430;2023-11-21T10:57:46;10.90;99.90
44190;DHT22;29856;52.144;5.430;2023-11-21T11:00:14;10.90;99.90
44190;DHT22;29856;52.144;5.430;2023-11-21T11:02:40;10.90;99.90
44190;DHT22;29856;52.144;5.430;2023-11-21T11:05:07;10.90;99.90
44190;DHT22;29856;52.144;5.430;2023-11-21T11:07:34;10.90;99.90
44190;DHT22;29856;52.144;5.430;2023-11-21T11:10:00;10.90;99.90
44190;DHT22;29856;52.144;5.430;2023-11-21T11:12:26;10.80;99.90
44190;DHT22;29856;52.144;5.430;2023-11-21T11:14:51;10.90;99.90
44190;DHT22;29856;52.144;5.430;2023-11-21T11:17:21;10.90;99.90
44190;DHT22;29856;52.144;5.430;2023-11-21T11:19:48;10.90;99.90
44190;DHT22;29856;52.144;5.430;2023-11-21T11:22:43;10.90;99.90
44190;DHT22;29856;52.144;5.430;2023-11-21T11:28:03;10.80;99.90
44190;DHT22;29856;52.144;5.430;2023-11-21T11:33:45;10.90;99.90
44190;DHT22;29856;52.144;5.430;2023-11-21T11:38:46;10.90;99.90
44190;DHT22;29856;52.144;5.430;2023-11-21T11:41:11;10.90;99.90
44190;DHT22;29856;52.144;5.430;2023-11-21T11:43:37;10.90;99.90
44190;DHT22;29856;52.144;5.430;2023-11-21T11:46:03;10.90;99.90
44190;DHT22;29856;52.144;5.430;2023-11-21T11:48:29;10.90;99.90
44190;DHT22;29856;52.144;5.430;2023-11-21T11:51:10;11.00;99.90
44190;DHT22;29856;52.144;5.430;2023-11-21T11:53:40;11.10;99.90
44190;DHT22;29856;52.144;5.430;2023-11-21T11:58:47;10.90;99.90
44190;DHT22;29856;52.144;5.430;2023-11-21T12:01:13;11.00;99.90
44190;DHT22;29856;52.144;5.430;2023-11-21T12:03:38;11.00;99.90
44190;DHT22;29856;52.144;5.430;2023-11-21T12:06:05;11.00;99.90
44190;DHT22;29856;52.144;5.430;2023-11-21T12:08:30;11.00;99.90
44190;DHT22;29856;52.144;5.430;2023-11-21T12:10:57;11.00;99.90
44190;DHT22;29856;52.144;5.430;2023-11-21T12:13:22;11.00;99.90
44190;DHT22;29856;52.144;5.430;2023-11-21T12:15:48;10.90;99.90
44190;DHT22;29856;52.144;5.430;2023-11-21T12:18:14;10.90;99.90
44190;DHT22;29856;52.144;5.430;2023-11-21T12:20:39;11.00;99.90
44190;DHT22;29856;52.144;5.430;2023-11-21T12:23:05;10.90;99.90
44190;DHT22;29856;52.144;5.430;2023-11-21T12:25:31;10.80;99.90
44190;DHT22;29856;52.144;5.430;2023-11-21T12:27:58;10.90;99.90
44190;DHT22;29856;52.144;5.430;2023-11-21T12:30:28;10.90;99.90
44190;DHT22;29856;52.144;5.430;2023-11-21T12:32:55;10.90;99.90
44190;DHT22;29856;52.144;5.430;2023-11-21T12:35:22;10.90;99.90
44190;DHT22;29856;52.144;5.430;2023-11-21T12:37:49;11.00;99.90
44190;DHT22;29856;52.144;5.430;2023-11-21T12:40:16;10.90;99.90
44190;DHT22;29856;52.144;5.430;2023-11-21T12:42:42;10.90;99.90
44190;DHT22;29856;52.144;5.430;2023-11-21T12:48:00;11.00;99.90
44190;DHT22;29856;52.144;5.430;2023-11-21T12:50:27;11.00;99.90
44190;DHT22;29856;52.144;5.430;2023-11-21T12:52:53;11.00;99.90
44190;DHT22;29856;52.144;5.430;2023-11-21T12:55:20;11.00;99.90
44190;DHT22;29856;52.144;5.430;2023-11-21T12:57:51;11.10;99.90
44190;DHT22;29856;52.144;5.430;2023-11-21T13:00:18;11.10;99.90
44190;DHT22;29856;52.144;5.430;2023-11-21T13:02:44;11.10;99.90
44190;DHT22;29856;52.144;5.430;2023-11-21T13:05:09;11.30;99.90
44190;DHT22;29856;52.144;5.430;2023-11-21T13:07:44;11.30;99.90
44190;DHT22;29856;52.144;5.430;2023-11-21T13:10:11;11.30;99.90
44190;DHT22;29856;52.144;5.430;2023-11-21T13:12:36;11.30;99.90
44190;DHT22;29856;52.144;5.430;2023-11-21T13:15:06;11.30;99.90
44190;DHT22;29856;52.144;5.430;2023-11-21T13:17:32;11.30;99.90
44190;DHT22;29856;52.144;5.430;2023-11-21T13:19:57;11.30;99.90
44190;DHT22;29856;52.144;5.430;2023-11-21T13:22:22;11.30;99.90
44190;DHT22;29856;52.144;5.430;2023-11-21T13:24:48;11.20;99.90
44190;DHT22;29856;52.144;5.430;2023-11-21T13:27:13;11.20;99.90
44190;DHT22;29856;52.144;5.430;2023-11-21T13:29:39;11.10;99.90
44190;DHT22;29856;52.144;5.430;2023-11-21T13:32:04;11.20;99.90
44190;DHT22;29856;52.144;5.430;2023-11-21T13:34:30;11.10;99.90
44190;DHT22;29856;52.144;5.430;2023-11-21T13:36:55;11.10;99.90
44190;DHT22;29856;52.144;5.430;2023-11-21T13:39:21;11.10;99.90
44190;DHT22;29856;52.144;5.430;2023-11-21T13:41:46;11.00;99.90
44190;DHT22;29856;52.144;5.430;2023-11-21T13:44:12;10.90;99.90
44190;DHT22;29856;52.144;5.430;2023-11-21T13:46:37;10.90;99.90
44190;DHT22;29856;52.144;5.430;2023-11-21T13:49:03;10.90;99.90
44190;DHT22;29856;52.144;5.430;2023-11-21T13:51:28;10.80;99.90
44190;DHT22;29856;52.144;5.430;2023-11-21T13:53:54;10.80;99.90
44190;DHT22;29856;52.144;5.430;2023-11-21T13:56:19;10.70;99.90
44190;DHT22;29856;52.144;5.430;2023-11-21T13:58:45;10.70;99.90
44190;DHT22;29856;52.144;5.430;2023-11-21T14:01:11;10.70;99.90
44190;DHT22;29856;52.144;5.430;2023-11-21T14:03:36;10.70;99.90
44190;DHT22;29856;52.144;5.430;2023-11-21T14:06:02;10.70;99.90
44190;DHT22;29856;52.144;5.430;2023-11-21T14:08:27;10.70;99.90
44190;DHT22;29856;52.144;5.430;2023-11-21T14:10:53;10.60;99.90
44190;DHT22;29856;52.144;5.430;2023-11-21T14:13:19;10.60;99.90
44190;DHT22;29856;52.144;5.430;2023-11-21T14:15:45;10.50;99.90
44190;DHT22;29856;52.144;5.430;2023-11-21T14:18:11;10.50;99.90
44190;DHT22;29856;52.144;5.430;2023-11-21T14:20:37;10.60;99.90
44190;DHT22;29856;52.144;5.430;2023-11-21T14:23:04;10.50;99.90
44190;DHT22;29856;52.144;5.430;2023-11-21T14:25:29;10.50;99.90
44190;DHT22;29856;52.144;5.430;2023-11-21T14:27:55;10.50;99.90
44190;DHT22;29856;52.144;5.430;2023-11-21T14:30:20;10.40;99.90
44190;DHT22;29856;52.144;5.430;2023-11-21T14:32:46;10.40;99.90
44190;DHT22;29856;52.144;5.430;2023-11-21T14:35:11;10.40;99.90
44190;DHT22;29856;52.144;5.430;2023-11-21T14:37:36;10.40;99.90
44190;DHT22;29856;52.144;5.430;2023-11-21T14:40:02;10.40;99.90
44190;DHT22;29856;52.144;5.430;2023-11-21T14:42:28;10.30;99.90
44190;DHT22;29856;52.144;5.430;2023-11-21T14:44:53;10.30;99.90
44190;DHT22;29856;52.144;5.430;2023-11-21T14:47:18;10.30;99.90
44190;DHT22;29856;52.144;5.430;2023-11-21T14:49:44;10.30;99.90
44190;DHT22;29856;52.144;5.430;2023-11-21T14:52:10;10.20;99.90
44190;DHT22;29856;52.144;5.430;2023-11-21T14:54:35;10.10;99.90
44190;DHT22;29856;52.144;5.430;2023-11-21T14:57:01;9.90;99.90
44190;DHT22;29856;52.144;5.430;2023-11-21T14:59:26;9.90;99.90
44190;DHT22;29856;52.144;5.430;2023-11-21T15:01:51;9.80;99.90
44190;DHT22;29856;52.144;5.430;2023-11-21T15:04:17;9.80;99.90
44190;DHT22;29856;52.144;5.430;2023-11-21T15:06:42;9.80;99.90
44190;DHT22;29856;52.144;5.430;2023-11-21T15:09:08;9.80;99.90
44190;DHT22;29856;52.144;5.430;2023-11-21T15:11:34;9.90;99.90
44190;DHT22;29856;52.144;5.430;2023-11-21T15:14:00;9.80;99.90
44190;DHT22;29856;52.144;5.430;2023-11-21T15:16:26;9.80;99.90
44190;DHT22;29856;52.144;5.430;2023-11-21T15:18:52;9.80;99.90
44190;DHT22;29856;52.144;5.430;2023-11-21T15:21:17;9.80;99.90
44190;DHT22;29856;52.144;5.430;2023-11-21T15:23:43;9.70;99.90
44190;DHT22;29856;52.144;5.430;2023-11-21T15:26:08;9.70;99.90
44190;DHT22;29856;52.144;5.430;2023-11-21T15:28:34;9.80;99.90
44190;DHT22;29856;52.144;5.430;2023-11-21T15:30:59;9.70;99.90
44190;DHT22;29856;52.144;5.430;2023-11-21T15:33:25;9.80;99.90
44190;DHT22;29856;52.144;5.430;2023-11-21T15:35:50;9.70;99.90
44190;DHT22;29856;52.144;5.430;2023-11-21T15:38:16;9.60;99.90
44190;DHT22;29856;52.144;5.430;2023-11-21T15:40:41;9.70;99.90